createdAt,value
2019-03-26T00:00:46.020Z,9.00
2019-03-26T00:03:14.060Z,9.00
2019-03-26T00:05:42.018Z,9.00
2019-03-26T00:08:10.037Z,9.00
2019-03-26T00:10:37.957Z,9.00
2019-03-26T00:13:06.216Z,9.00
2019-03-26T00:15:34.217Z,9.00
2019-03-26T00:18:02.225Z,9.00
2019-03-26T00:20:30.219Z,9.00
2019-03-26T00:22:58.112Z,9.00
2019-03-26T00:25:26.113Z,9.00
2019-03-26T00:27:53.994Z,9.00
2019-03-26T00:30:21.921Z,8.90
2019-03-26T00:32:49.905Z,8.90
2019-03-26T00:35:17.819Z,8.90
2019-03-26T00:37:45.832Z,8.90
2019-03-26T00:40:13.933Z,8.90
2019-03-26T00:42:42.018Z,8.90
2019-03-26T00:45:09.952Z,8.80
2019-03-26T00:47:37.874Z,8.80
2019-03-26T00:50:06.642Z,8.90
2019-03-26T00:52:34.658Z,8.90
2019-03-26T00:55:02.574Z,8.80
2019-03-26T00:57:30.594Z,8.90
2019-03-26T00:59:58.527Z,8.90
2019-03-26T01:02:26.390Z,8.90
2019-03-26T01:04:54.286Z,8.90
2019-03-26T01:07:22.200Z,8.90
2019-03-26T01:09:50.340Z,8.90
2019-03-26T01:12:18.345Z,8.90
2019-03-26T01:14:46.249Z,8.90
2019-03-26T01:17:14.127Z,9.00
2019-03-26T01:19:42.116Z,9.00
2019-03-26T01:22:10.033Z,8.90
2019-03-26T01:24:37.915Z,8.90
2019-03-26T01:27:05.951Z,8.90
2019-03-26T01:29:35.110Z,8.90
2019-03-26T01:32:03.134Z,8.90
2019-03-26T01:34:31.040Z,8.90
2019-03-26T01:36:59.049Z,8.90
2019-03-26T01:39:27.387Z,8.90
2019-03-26T01:41:55.404Z,8.90
2019-03-26T01:44:23.316Z,8.90
2019-03-26T01:46:51.306Z,8.90
2019-03-26T01:49:19.294Z,8.90
2019-03-26T01:51:47.307Z,8.90
2019-03-26T01:54:15.173Z,8.90
2019-03-26T01:56:43.174Z,8.90
2019-03-26T01:59:11.175Z,8.90
2019-03-26T02:01:40.218Z,8.90
2019-03-26T02:04:08.199Z,8.90
2019-03-26T02:06:36.071Z,8.90
2019-03-26T02:09:05.251Z,8.80
2019-03-26T02:11:33.159Z,8.80
2019-03-26T02:14:01.244Z,8.80
2019-03-26T02:16:29.160Z,8.70
2019-03-26T02:18:57.040Z,8.70
2019-03-26T02:21:24.906Z,8.70
2019-03-26T02:23:52.801Z,8.70
2019-03-26T02:26:20.803Z,8.70
2019-03-26T02:28:48.801Z,8.70
2019-03-26T02:31:16.811Z,8.70
2019-03-26T02:33:44.976Z,8.70
2019-03-26T02:36:12.987Z,8.70
2019-03-26T02:38:40.970Z,8.70
2019-03-26T02:41:08.960Z,8.70
2019-03-26T02:43:36.914Z,8.70
2019-03-26T02:46:04.929Z,8.70
2019-03-26T02:48:32.917Z,8.60
2019-03-26T02:51:00.904Z,8.70
2019-03-26T02:53:48.081Z,8.70
2019-03-26T02:56:16.093Z,8.70
2019-03-26T02:58:44.076Z,8.70
2019-03-26T03:01:12.102Z,8.70
2019-03-26T03:03:40.132Z,8.70
2019-03-26T03:06:08.037Z,8.70
2019-03-26T03:08:35.932Z,8.70
2019-03-26T03:11:04.003Z,8.70
2019-03-26T03:13:31.931Z,8.70
2019-03-26T03:15:59.934Z,8.70
2019-03-26T03:18:27.804Z,8.70
2019-03-26T03:20:55.924Z,8.70
2019-03-26T03:23:24.130Z,8.70
2019-03-26T03:25:52.110Z,8.70
2019-03-26T03:28:20.094Z,8.70
2019-03-26T03:30:48.086Z,8.60
2019-03-26T03:33:16.140Z,8.60
2019-03-26T03:35:52.265Z,8.60
2019-03-26T03:38:13.895Z,8.50
2019-03-26T03:40:41.755Z,8.50
2019-03-26T03:43:09.732Z,8.40
2019-03-26T03:45:38.944Z,8.40
2019-03-26T03:48:08.172Z,8.40
2019-03-26T03:50:39.102Z,8.30
2019-03-26T03:53:08.394Z,8.20
2019-03-26T03:55:36.605Z,8.20
2019-03-26T03:58:04.600Z,8.10
2019-03-26T04:00:34.201Z,8.10
2019-03-26T04:03:02.770Z,8.00
2019-03-26T04:05:31.477Z,8.00
2019-03-26T04:07:59.435Z,7.90
2019-03-26T04:10:27.424Z,7.80
2019-03-26T04:12:55.328Z,7.70
2019-03-26T04:15:23.308Z,7.60
2019-03-26T04:17:51.215Z,7.60
2019-03-26T04:20:19.206Z,7.50
2019-03-26T04:22:47.079Z,7.40
2019-03-26T04:25:15.056Z,7.30
2019-03-26T04:27:42.976Z,7.20
2019-03-26T04:30:14.559Z,7.10
2019-03-26T04:32:42.450Z,7.00
2019-03-26T04:35:10.431Z,6.90
2019-03-26T04:37:57.735Z,6.80
2019-03-26T04:40:25.713Z,6.70
2019-03-26T04:42:53.651Z,6.60
2019-03-26T04:45:21.634Z,6.50
2019-03-26T04:47:49.542Z,6.40
2019-03-26T04:50:17.643Z,6.40
2019-03-26T04:52:45.518Z,6.30
2019-03-26T04:55:13.536Z,6.20
2019-03-26T04:57:41.475Z,6.20
2019-03-26T05:00:10.666Z,6.10
2019-03-26T05:02:38.629Z,6.00
2019-03-26T05:05:06.836Z,6.00
2019-03-26T05:07:34.842Z,6.00
2019-03-26T05:10:02.900Z,6.00
2019-03-26T05:12:30.917Z,5.90
2019-03-26T05:14:58.903Z,5.80
2019-03-26T05:17:26.842Z,5.90
2019-03-26T05:19:55.078Z,5.80
2019-03-26T05:22:24.463Z,5.90
2019-03-26T05:24:52.600Z,5.80
2019-03-26T05:27:20.478Z,5.90
2019-03-26T05:29:50.316Z,5.90
2019-03-26T05:32:18.194Z,5.90
2019-03-26T05:34:46.188Z,5.90
2019-03-26T05:37:14.208Z,5.90
2019-03-26T05:39:42.200Z,5.90
2019-03-26T05:42:10.247Z,5.90
2019-03-26T05:44:38.173Z,5.90
2019-03-26T05:47:06.184Z,6.00
2019-03-26T05:49:34.296Z,6.00
2019-03-26T05:52:02.248Z,6.10
2019-03-26T05:54:30.168Z,6.10
2019-03-26T05:56:58.062Z,6.10
2019-03-26T05:59:26.081Z,6.10
2019-03-26T06:01:53.974Z,6.20
2019-03-26T06:04:21.842Z,6.30
2019-03-26T06:06:49.869Z,6.30
2019-03-26T06:09:21.482Z,6.30
2019-03-26T06:11:49.497Z,6.30
2019-03-26T06:14:17.515Z,6.40
2019-03-26T06:16:45.533Z,6.40
2019-03-26T06:19:13.491Z,6.50
2019-03-26T06:21:41.517Z,6.60
2019-03-26T06:24:09.554Z,6.60
2019-03-26T06:26:37.624Z,6.70
2019-03-26T06:29:05.607Z,6.70
2019-03-26T06:31:33.624Z,6.70
2019-03-26T06:34:01.633Z,6.70
2019-03-26T06:36:29.708Z,6.70
2019-03-26T06:38:57.721Z,6.70
2019-03-26T06:41:25.797Z,6.70
2019-03-26T06:43:53.784Z,6.80
2019-03-26T06:46:21.858Z,6.80
2019-03-26T06:48:49.840Z,6.90
2019-03-26T06:51:17.769Z,7.00
2019-03-26T06:53:45.745Z,7.00
2019-03-26T06:56:15.801Z,7.10
2019-03-26T06:58:43.823Z,7.20
2019-03-26T07:01:11.805Z,7.30
2019-03-26T07:03:39.703Z,7.40
2019-03-26T07:06:07.703Z,7.40
2019-03-26T07:08:35.646Z,7.40
2019-03-26T07:11:03.619Z,7.40
2019-03-26T07:13:31.609Z,7.40
2019-03-26T07:15:59.508Z,7.40
2019-03-26T07:18:27.415Z,7.40
2019-03-26T07:20:55.316Z,7.40
2019-03-26T07:23:23.274Z,7.40
2019-03-26T07:25:51.335Z,7.40
2019-03-26T07:28:19.371Z,7.50
2019-03-26T07:30:47.559Z,7.50
2019-03-26T07:33:15.460Z,7.60
2019-03-26T07:35:43.342Z,7.70
2019-03-26T07:38:11.250Z,7.80
2019-03-26T07:40:39.254Z,7.90
2019-03-26T07:43:07.184Z,7.90
2019-03-26T07:45:35.088Z,8.00
2019-03-26T07:48:03.088Z,8.00
2019-03-26T07:50:31.108Z,8.10
2019-03-26T07:52:59.114Z,8.10
2019-03-26T07:55:27.002Z,8.20
2019-03-26T07:57:55.330Z,8.40
2019-03-26T08:00:32.009Z,8.40
2019-03-26T08:02:59.939Z,8.50
2019-03-26T08:05:29.893Z,8.60
2019-03-26T08:07:58.926Z,8.80
2019-03-26T08:10:27.059Z,8.90
2019-03-26T08:12:55.050Z,8.90
2019-03-26T08:15:23.099Z,8.90
2019-03-26T08:17:51.098Z,9.00
2019-03-26T08:20:19.149Z,9.10
2019-03-26T08:22:47.052Z,9.20
2019-03-26T08:25:15.050Z,9.30
2019-03-26T08:27:43.017Z,9.20
2019-03-26T08:30:11.096Z,9.30
2019-03-26T08:32:38.979Z,9.30
2019-03-26T08:35:07.012Z,9.50
2019-03-26T08:37:35.050Z,9.60
2019-03-26T08:40:03.153Z,9.70
2019-03-26T08:42:31.135Z,9.80
2019-03-26T08:44:59.048Z,9.90
2019-03-26T08:47:27.010Z,10.00
2019-03-26T08:49:54.919Z,10.10
2019-03-26T08:52:22.996Z,10.10
2019-03-26T08:54:50.973Z,10.10
2019-03-26T08:57:18.857Z,10.20
2019-03-26T08:59:46.878Z,10.10
2019-03-26T09:02:14.903Z,10.20
2019-03-26T09:04:44.601Z,10.20
2019-03-26T09:07:12.568Z,10.50
2019-03-26T09:09:40.529Z,10.80
2019-03-26T09:12:08.525Z,10.90
2019-03-26T09:14:36.469Z,10.70
2019-03-26T09:17:04.565Z,10.60
2019-03-26T09:19:32.443Z,10.70
2019-03-26T09:22:00.429Z,11.20
2019-03-26T09:24:28.461Z,11.50
2019-03-26T09:26:56.439Z,11.70
2019-03-26T09:29:24.362Z,12.00
2019-03-26T09:31:52.333Z,12.50
2019-03-26T09:34:26.119Z,12.60
2019-03-26T09:36:54.038Z,12.60
2019-03-26T09:39:23.149Z,12.40
2019-03-26T09:41:51.167Z,12.20
2019-03-26T09:44:19.175Z,11.90
2019-03-26T09:46:47.157Z,11.80
2019-03-26T09:49:15.062Z,11.60
2019-03-26T09:51:42.970Z,11.50
2019-03-26T09:54:10.962Z,11.40
2019-03-26T09:56:38.875Z,11.60
2019-03-26T09:59:06.787Z,11.80
2019-03-26T10:01:34.753Z,11.90
2019-03-26T10:04:02.672Z,11.70
2019-03-26T10:06:30.664Z,11.70
2019-03-26T10:08:58.686Z,11.80
2019-03-26T10:11:28.174Z,11.80
2019-03-26T10:13:56.171Z,11.80
2019-03-26T10:16:24.148Z,11.90
2019-03-26T10:18:52.059Z,11.90
2019-03-26T10:21:20.051Z,11.90
2019-03-26T10:23:48.024Z,11.90
2019-03-26T10:26:15.899Z,11.80
2019-03-26T10:28:43.828Z,11.70
2019-03-26T10:31:11.726Z,11.70
2019-03-26T10:33:39.727Z,11.70
2019-03-26T10:36:07.653Z,11.90
2019-03-26T10:38:35.600Z,12.00
2019-03-26T10:41:03.627Z,12.10
2019-03-26T10:43:34.001Z,12.00
2019-03-26T10:46:03.776Z,12.00
2019-03-26T10:48:31.999Z,12.10
2019-03-26T10:51:00.044Z,12.10
2019-03-26T10:53:28.081Z,12.10
2019-03-26T10:56:00.608Z,12.10
2019-03-26T10:58:28.497Z,12.10
2019-03-26T11:00:56.386Z,12.10
2019-03-26T11:03:24.357Z,12.20
2019-03-26T11:05:55.083Z,12.30
2019-03-26T11:08:22.965Z,12.30
2019-03-26T11:10:50.978Z,12.20
2019-03-26T11:13:28.867Z,12.00
2019-03-26T11:15:56.829Z,12.10
2019-03-26T11:18:27.859Z,12.10
2019-03-26T11:21:02.647Z,12.20
2019-03-26T11:23:30.332Z,12.10
2019-03-26T11:26:00.091Z,12.10
2019-03-26T11:28:28.192Z,12.10
2019-03-26T11:30:56.113Z,12.10
2019-03-26T11:33:24.056Z,12.20
2019-03-26T11:35:54.454Z,12.30
2019-03-26T11:38:25.684Z,12.50
2019-03-26T11:40:53.678Z,12.80
2019-03-26T11:43:24.028Z,13.00
2019-03-26T11:45:52.051Z,13.20
2019-03-26T11:48:22.827Z,13.50
2019-03-26T11:50:53.877Z,13.50
2019-03-26T11:53:21.792Z,13.30
2019-03-26T11:55:49.766Z,13.20
2019-03-26T11:58:29.778Z,13.20
2019-03-26T12:00:47.609Z,13.30
2019-03-26T12:03:15.583Z,13.40
2019-03-26T12:05:43.537Z,13.90
2019-03-26T12:08:11.520Z,14.30
2019-03-26T12:10:39.524Z,14.80
2019-03-26T12:13:07.433Z,15.50
2019-03-26T12:15:35.417Z,15.80
2019-03-26T12:18:06.222Z,16.00
2019-03-26T12:20:34.459Z,16.40
2019-03-26T12:23:02.470Z,16.40
2019-03-26T12:25:30.448Z,16.50
2019-03-26T12:27:58.422Z,16.10
2019-03-26T12:30:34.210Z,16.30
2019-03-26T12:33:02.210Z,16.20
2019-03-26T12:35:30.295Z,15.80
2019-03-26T12:37:58.719Z,16.10
2019-03-26T12:40:26.711Z,16.70
2019-03-26T12:42:54.656Z,16.80
2019-03-26T12:45:22.649Z,16.90
2019-03-26T12:47:50.559Z,17.00
2019-03-26T12:50:18.451Z,17.40
2019-03-26T12:52:46.323Z,18.10
2019-03-26T12:55:14.254Z,18.00
2019-03-26T12:57:42.171Z,18.30
2019-03-26T13:00:10.377Z,18.60
2019-03-26T13:02:38.393Z,19.30
2019-03-26T13:05:06.450Z,19.40
2019-03-26T13:07:36.466Z,19.20
2019-03-26T13:10:13.391Z,19.10
2019-03-26T13:12:34.875Z,18.40
2019-03-26T13:15:02.899Z,18.20
2019-03-26T13:17:30.963Z,18.50
2019-03-26T13:19:59.047Z,18.50
2019-03-26T13:22:27.001Z,18.60
2019-03-26T13:24:54.991Z,18.40
2019-03-26T13:27:22.985Z,18.20
2019-03-26T13:29:51.351Z,18.30
2019-03-26T13:32:19.273Z,18.30
2019-03-26T13:34:47.251Z,18.40
2019-03-26T13:37:15.154Z,18.50
2019-03-26T13:39:43.233Z,18.20
2019-03-26T13:42:11.241Z,17.70
2019-03-26T13:44:39.251Z,17.80
2019-03-26T13:47:07.292Z,18.70
2019-03-26T13:49:35.314Z,19.30
2019-03-26T13:52:03.293Z,19.10
2019-03-26T13:54:31.310Z,18.50
2019-03-26T13:56:59.351Z,18.30
2019-03-26T13:59:27.239Z,18.40
2019-03-26T14:01:55.249Z,18.60
2019-03-26T14:04:23.291Z,19.50
2019-03-26T14:06:52.593Z,19.80
2019-03-26T14:09:20.885Z,20.10
2019-03-26T14:11:48.867Z,20.20
2019-03-26T14:14:16.915Z,19.60
2019-03-26T14:16:44.927Z,19.50
2019-03-26T14:19:13.544Z,19.10
2019-03-26T14:21:41.505Z,18.90
2019-03-26T14:24:09.456Z,18.40
2019-03-26T14:26:37.368Z,17.90
2019-03-26T14:29:05.380Z,18.10
2019-03-26T14:31:33.376Z,17.70
2019-03-26T14:34:01.299Z,17.40
2019-03-26T14:36:29.238Z,17.00
2019-03-26T14:38:57.264Z,16.80
2019-03-26T14:41:25.190Z,17.70
2019-03-26T14:43:53.130Z,18.10
2019-03-26T14:46:21.155Z,18.60
2019-03-26T14:48:49.136Z,18.40
2019-03-26T14:51:17.192Z,18.20
2019-03-26T14:53:45.258Z,17.80
2019-03-26T14:56:14.974Z,17.60
2019-03-26T14:58:42.963Z,17.30
2019-03-26T15:01:11.732Z,17.10
2019-03-26T15:03:39.790Z,16.90
2019-03-26T15:06:07.792Z,16.70
2019-03-26T15:08:35.800Z,16.80
2019-03-26T15:11:08.294Z,16.60
2019-03-26T15:13:33.553Z,16.50
2019-03-26T15:16:01.602Z,16.40
2019-03-26T15:18:29.609Z,16.50
2019-03-26T15:23:54.053Z,16.40
2019-03-26T15:26:21.982Z,16.40
2019-03-26T15:28:50.934Z,17.30
2019-03-26T15:31:20.003Z,18.40
2019-03-26T15:33:52.178Z,19.30
2019-03-26T15:36:20.106Z,19.60
2019-03-26T15:38:49.300Z,19.10
2019-03-26T15:41:21.853Z,18.20
2019-03-26T15:43:49.140Z,17.50
2019-03-26T15:46:19.523Z,17.10
2019-03-26T15:48:47.577Z,16.40
2019-03-26T15:51:15.900Z,16.10
2019-03-26T15:53:43.896Z,15.90
2019-03-26T15:56:11.903Z,15.80
2019-03-26T15:58:39.905Z,15.50
2019-03-26T16:01:07.774Z,15.40
2019-03-26T16:03:35.938Z,15.30
2019-03-26T16:06:04.177Z,15.40
2019-03-26T16:08:32.266Z,15.30
2019-03-26T16:11:00.256Z,15.00
2019-03-26T16:13:28.291Z,15.20
2019-03-26T16:15:56.365Z,16.00
2019-03-26T16:18:24.397Z,16.60
2019-03-26T16:20:52.412Z,17.10
2019-03-26T16:23:20.454Z,17.80
2019-03-26T16:25:48.493Z,18.30
2019-03-26T16:28:16.559Z,18.50
2019-03-26T16:30:44.586Z,18.40
2019-03-26T16:33:12.658Z,18.10
2019-03-26T16:35:40.695Z,17.50
2019-03-26T16:38:08.987Z,17.40
2019-03-26T16:40:37.011Z,17.10
2019-03-26T16:43:04.972Z,17.00
2019-03-26T16:45:32.973Z,16.70
2019-03-26T16:48:00.884Z,16.40
2019-03-26T16:50:28.867Z,15.90
2019-03-26T16:52:56.824Z,15.40
2019-03-26T16:55:25.849Z,15.10
2019-03-26T16:57:53.975Z,15.00
2019-03-26T17:00:30.825Z,15.00
2019-03-26T17:03:00.056Z,14.80
2019-03-26T17:05:28.117Z,14.70
2019-03-26T17:07:56.145Z,14.50
2019-03-26T17:10:24.141Z,14.30
2019-03-26T17:12:52.213Z,14.20
2019-03-26T17:15:20.253Z,14.30
2019-03-26T17:17:48.252Z,14.30
2019-03-26T17:20:16.338Z,14.30
2019-03-26T17:22:44.375Z,14.30
2019-03-26T17:25:12.454Z,14.20
2019-03-26T17:27:40.348Z,14.00
2019-03-26T17:30:08.645Z,13.90
2019-03-26T17:32:38.677Z,13.90
2019-03-26T17:35:06.713Z,13.80
2019-03-26T17:37:34.615Z,13.80
2019-03-26T17:40:02.583Z,13.50
2019-03-26T17:42:30.673Z,13.20
2019-03-26T17:44:58.687Z,12.90
2019-03-26T17:47:26.700Z,12.80
2019-03-26T17:49:54.709Z,12.70
2019-03-26T17:52:22.668Z,12.60
2019-03-26T17:54:50.576Z,12.60
2019-03-26T17:57:18.543Z,12.40
2019-03-26T17:59:46.679Z,12.10
2019-03-26T18:02:14.633Z,12.00
2019-03-26T18:04:42.784Z,11.90
2019-03-26T18:07:11.969Z,11.80
2019-03-26T18:09:39.996Z,11.70
2019-03-26T18:12:07.968Z,11.60
2019-03-26T18:14:36.367Z,11.50
2019-03-26T18:17:04.311Z,11.30
2019-03-26T18:19:34.301Z,11.30
2019-03-26T18:22:02.210Z,11.20
2019-03-26T18:24:30.258Z,11.10
2019-03-26T18:26:58.692Z,11.10
2019-03-26T18:29:26.744Z,10.90
2019-03-26T18:31:56.460Z,10.90
2019-03-26T18:34:24.507Z,10.70
2019-03-26T18:36:52.592Z,10.60
2019-03-26T18:39:20.585Z,10.60
2019-03-26T18:44:30.029Z,10.40
2019-03-26T18:46:57.997Z,10.30
2019-03-26T18:49:26.526Z,10.20
2019-03-26T18:51:54.708Z,10.10
2019-03-26T18:54:25.867Z,10.00
2019-03-26T18:56:54.144Z,10.00
2019-03-26T18:59:22.044Z,9.90
2019-03-26T19:01:50.032Z,9.80
2019-03-26T19:04:18.070Z,9.70
2019-03-26T19:06:46.122Z,9.60
2019-03-26T19:09:16.191Z,9.50
2019-03-26T19:11:44.246Z,9.30
2019-03-26T19:14:12.277Z,9.30
2019-03-26T19:16:42.461Z,9.20
2019-03-26T19:19:10.385Z,9.20
2019-03-26T19:21:38.355Z,9.10
2019-03-26T19:24:06.363Z,9.10
2019-03-26T19:26:34.411Z,9.00
2019-03-26T19:29:02.513Z,9.00
2019-03-26T19:31:30.607Z,8.90
2019-03-26T19:33:58.519Z,8.80
2019-03-26T19:36:26.506Z,8.70
2019-03-26T19:38:54.533Z,8.80
2019-03-26T19:41:22.534Z,8.70
2019-03-26T19:43:50.574Z,8.70
2019-03-26T19:46:18.712Z,8.70
2019-03-26T19:48:46.742Z,8.70
2019-03-26T19:51:14.663Z,8.70
2019-03-26T19:53:42.676Z,8.70
2019-03-26T19:56:10.713Z,8.70
2019-03-26T19:58:38.738Z,8.70
2019-03-26T20:01:06.757Z,8.60
2019-03-26T20:03:34.792Z,8.50
2019-03-26T20:06:13.454Z,8.50
2019-03-26T20:08:37.898Z,8.50
2019-03-26T20:11:09.226Z,8.50
2019-03-26T20:13:37.605Z,8.60
2019-03-26T20:16:05.686Z,8.60
2019-03-26T20:18:35.523Z,8.50
2019-03-26T20:21:05.500Z,8.40
2019-03-26T20:23:33.575Z,8.40
2019-03-26T20:26:01.712Z,8.50
2019-03-26T20:28:32.181Z,8.40
2019-03-26T20:31:00.239Z,8.40
2019-03-26T20:33:30.639Z,8.30
2019-03-26T20:36:00.721Z,8.30
2019-03-26T20:38:31.342Z,8.30
2019-03-26T20:40:59.247Z,8.20
2019-03-26T20:43:37.270Z,8.20
2019-03-26T20:45:59.401Z,8.10
2019-03-26T20:48:29.611Z,8.10
2019-03-26T20:50:57.576Z,8.00
2019-03-26T20:53:28.032Z,8.00
2019-03-26T20:55:58.376Z,8.00
2019-03-26T20:58:30.825Z,7.90
2019-03-26T21:00:58.971Z,7.90
2019-03-26T21:03:29.359Z,8.00
2019-03-26T21:05:59.172Z,8.10
2019-03-26T21:08:29.578Z,8.10
2019-03-26T21:11:01.407Z,8.20
2019-03-26T21:13:29.435Z,8.30
2019-03-26T21:15:57.823Z,8.30
2019-03-26T21:18:26.069Z,8.30
2019-03-26T21:20:56.585Z,8.30
2019-03-26T21:23:24.534Z,8.40
2019-03-26T21:25:52.655Z,8.40
2019-03-26T21:28:20.755Z,8.40
2019-03-26T21:30:48.761Z,8.40
2019-03-26T21:33:16.733Z,8.50
2019-03-26T21:35:44.705Z,8.50
2019-03-26T21:38:12.591Z,8.50
2019-03-26T21:40:40.695Z,8.50
2019-03-26T21:43:08.706Z,8.50
2019-03-26T21:45:38.256Z,8.70
2019-03-26T21:48:07.267Z,8.70
2019-03-26T21:50:35.264Z,8.60
2019-03-26T21:53:03.365Z,8.60
2019-03-26T21:55:31.442Z,8.70
2019-03-26T21:57:59.461Z,8.80
2019-03-26T22:00:27.383Z,8.80
2019-03-26T22:02:55.273Z,8.90
2019-03-26T22:05:23.253Z,8.90
2019-03-26T22:07:52.778Z,8.90
2019-03-26T22:10:20.785Z,9.00
2019-03-26T22:12:48.784Z,9.10
2019-03-26T22:15:16.796Z,9.00
2019-03-26T22:17:44.718Z,9.10
2019-03-26T22:20:12.802Z,9.10
2019-03-26T22:22:40.691Z,9.10
2019-03-26T22:25:08.756Z,9.20
2019-03-26T22:27:36.680Z,9.20
2019-03-26T22:30:05.738Z,9.20
2019-03-26T22:32:33.630Z,9.20
2019-03-26T22:35:01.680Z,9.20
2019-03-26T22:37:29.668Z,9.20
2019-03-26T22:39:58.252Z,9.10
2019-03-26T22:42:26.144Z,9.00
2019-03-26T22:44:54.153Z,9.00
2019-03-26T22:47:22.170Z,9.00
2019-03-26T22:49:50.166Z,9.00
2019-03-26T22:52:18.130Z,8.90
2019-03-26T22:54:46.035Z,8.90
2019-03-26T22:57:14.068Z,8.80
2019-03-26T22:59:42.044Z,8.80
2019-03-26T23:02:12.785Z,8.80
2019-03-26T23:04:40.696Z,8.90
2019-03-26T23:07:08.706Z,8.90
2019-03-26T23:09:39.106Z,8.90
2019-03-26T23:12:06.488Z,8.80
2019-03-26T23:14:44.374Z,8.90
2019-03-26T23:17:04.371Z,8.90
2019-03-26T23:19:32.460Z,8.80
2019-03-26T23:22:00.503Z,8.80
2019-03-26T23:24:28.490Z,8.80
2019-03-26T23:26:56.772Z,8.80
2019-03-26T23:29:24.829Z,8.80
2019-03-26T23:31:54.105Z,8.80
2019-03-26T23:34:22.101Z,8.80
2019-03-26T23:36:50.121Z,8.80
2019-03-26T23:39:18.149Z,8.80
2019-03-26T23:41:46.167Z,8.80
2019-03-26T23:44:25.203Z,8.80
2019-03-26T23:46:46.777Z,8.80
2019-03-26T23:49:14.733Z,8.90
2019-03-26T23:51:42.739Z,8.90
2019-03-26T23:54:10.794Z,8.80
2019-03-26T23:56:38.883Z,8.80
2019-03-26T23:59:06.918Z,8.80
